createdAt,value
2018-05-21T00:04:51.383Z,6.32
2018-05-21T00:09:55.198Z,6.15
2018-05-21T00:14:58.822Z,6.70
2018-05-21T00:20:02.440Z,6.32
2018-05-21T00:25:06.248Z,6.07
2018-05-21T00:30:09.887Z,6.12
2018-05-21T00:35:13.132Z,6.50
2018-05-21T00:40:16.395Z,5.85
2018-05-21T00:45:20.032Z,6.22
2018-05-21T00:50:23.297Z,6.43
2018-05-21T00:55:33.977Z,5.85
2018-05-21T01:00:37.698Z,5.62
2018-05-21T01:05:41.354Z,5.85
2018-05-21T01:10:44.613Z,6.50
2018-05-21T01:15:47.862Z,5.70
2018-05-21T01:20:51.247Z,5.93
2018-05-21T01:25:54.462Z,5.68
2018-05-21T01:30:57.690Z,5.68
2018-05-21T01:36:00.960Z,6.40
2018-05-21T01:41:05.697Z,5.53
2018-05-21T01:46:09.333Z,5.00
2018-05-21T01:51:12.565Z,6.00
2018-05-21T01:56:15.795Z,5.18
2018-05-21T02:01:19.035Z,5.60
2018-05-21T02:06:22.771Z,5.43
2018-05-21T02:11:25.996Z,4.85
2018-05-21T02:16:29.229Z,5.15
2018-05-21T02:21:32.455Z,5.70
2018-05-21T02:26:35.692Z,4.72
2018-05-21T02:31:38.935Z,5.10
2018-05-21T02:36:42.150Z,4.62
2018-05-21T02:41:45.409Z,4.93
2018-05-21T02:46:48.634Z,5.07
2018-05-21T02:51:51.860Z,4.80
2018-05-21T02:56:55.101Z,4.77
2018-05-21T03:01:58.835Z,4.57
2018-05-21T03:07:02.445Z,4.87
2018-05-21T03:12:06.766Z,5.40
2018-05-21T03:17:10.444Z,5.00
2018-05-21T03:22:13.889Z,5.50
2018-05-21T03:27:17.121Z,5.60
2018-05-21T03:32:20.353Z,5.87
2018-05-21T03:37:23.578Z,5.37
2018-05-21T03:42:26.790Z,5.53
2018-05-21T03:47:30.021Z,5.80
2018-05-21T03:52:33.636Z,6.70
2018-05-21T03:57:37.266Z,7.00
2018-05-21T04:08:16.282Z,6.93
2018-05-21T04:13:19.526Z,6.93
2018-05-21T04:18:23.170Z,7.00
2018-05-21T04:23:26.424Z,6.43
2018-05-21T04:28:29.658Z,6.50
2018-05-21T04:33:33.280Z,6.37
2018-05-21T04:38:36.914Z,6.82
2018-05-21T04:43:40.169Z,6.45
2018-05-21T04:48:43.415Z,7.53
2018-05-21T04:53:46.651Z,8.20
2018-05-21T04:58:49.910Z,8.32
2018-05-21T05:03:53.540Z,8.27
2018-05-21T05:08:57.252Z,7.15
2018-05-21T05:14:00.884Z,8.63
2018-05-21T05:19:04.251Z,8.60
2018-05-21T05:24:07.497Z,8.65
2018-05-21T05:29:10.782Z,8.80
2018-05-21T05:34:14.550Z,8.98
2018-05-21T05:39:17.776Z,7.78
2018-05-21T05:44:21.006Z,7.93
2018-05-21T05:49:24.661Z,7.32
2018-05-21T05:54:27.902Z,8.18
2018-05-21T05:59:31.341Z,7.55
2018-05-21T06:04:34.986Z,7.70
2018-05-21T06:09:38.282Z,7.82
2018-05-21T06:14:41.915Z,6.68
2018-05-21T06:19:45.288Z,6.68
2018-05-21T06:24:48.908Z,5.95
2018-05-21T06:29:52.514Z,7.05
2018-05-21T06:34:55.739Z,6.50
2018-05-21T06:39:59.419Z,5.82
2018-05-21T06:45:02.753Z,6.18
2018-05-21T06:50:06.477Z,6.60
2018-05-21T06:55:10.108Z,7.35
2018-05-21T07:00:13.481Z,6.82
2018-05-21T07:05:16.721Z,6.40
2018-05-21T07:10:19.941Z,6.40
2018-05-21T07:15:23.407Z,7.53
2018-05-21T07:20:27.438Z,8.02
2018-05-21T07:25:31.154Z,6.37
2018-05-21T07:30:34.875Z,6.95
2018-05-21T07:35:38.515Z,6.50
2018-05-21T07:40:41.801Z,7.18
2018-05-21T07:45:45.438Z,7.30
2018-05-21T07:50:48.733Z,8.07
2018-05-21T07:55:52.428Z,7.43
2018-05-21T08:00:56.069Z,7.03
2018-05-21T08:05:59.341Z,7.55
2018-05-21T08:11:02.658Z,7.40
2018-05-21T08:16:06.393Z,6.57
2018-05-21T08:21:10.060Z,7.18
2018-05-21T08:26:13.438Z,6.55
2018-05-21T08:31:16.709Z,5.87
2018-05-21T08:36:20.009Z,5.97
2018-05-21T08:41:23.233Z,6.28
2018-05-21T08:46:26.903Z,6.60
2018-05-21T08:51:30.272Z,5.75
2018-05-21T08:56:33.988Z,6.62
2018-05-21T09:01:37.411Z,6.90
2018-05-21T09:06:40.698Z,6.43
2018-05-21T09:11:44.428Z,6.53
2018-05-21T09:16:47.946Z,6.85
2018-05-21T09:21:51.167Z,6.22
2018-05-21T09:26:54.987Z,7.47
2018-05-21T09:31:58.266Z,7.43
2018-05-21T09:37:02.925Z,7.32
2018-05-21T09:42:06.255Z,6.60
2018-05-21T09:47:09.846Z,6.57
2018-05-21T09:52:13.128Z,7.45
2018-05-21T09:57:16.771Z,7.40
2018-05-21T10:02:20.139Z,7.82
2018-05-21T10:07:23.373Z,7.43
2018-05-21T10:12:26.671Z,7.68
2018-05-21T10:17:30.001Z,6.40
2018-05-21T10:22:34.733Z,8.35
2018-05-21T10:27:38.019Z,6.55
2018-05-21T10:32:42.546Z,6.40
2018-05-21T10:37:45.911Z,7.35
2018-05-21T10:42:49.164Z,6.97
2018-05-21T10:47:53.473Z,5.93
2018-05-21T10:52:56.835Z,6.53
2018-05-21T10:58:00.085Z,6.05
2018-05-21T11:03:03.358Z,5.30
2018-05-21T11:08:06.781Z,5.60
2018-05-21T11:13:15.032Z,5.35
2018-05-21T11:18:18.358Z,4.57
2018-05-21T11:23:22.102Z,4.68
2018-05-21T11:28:25.791Z,4.53
2018-05-21T11:33:29.509Z,4.50
2018-05-21T11:38:33.128Z,6.90
2018-05-21T11:43:36.779Z,4.80
2018-05-21T11:48:40.031Z,6.10
2018-05-21T11:53:45.708Z,7.22
2018-05-21T11:58:48.967Z,6.85
2018-05-21T12:03:52.202Z,7.72
2018-05-21T12:08:55.650Z,6.00
2018-05-21T12:13:59.352Z,4.45
2018-05-21T12:19:03.167Z,4.40
2018-05-21T12:24:08.127Z,6.25
2018-05-21T12:29:11.834Z,4.68
2018-05-21T12:34:15.549Z,4.45
2018-05-21T12:39:19.265Z,3.60
2018-05-21T12:44:22.907Z,3.60
2018-05-21T12:49:26.188Z,2.90
2018-05-21T12:54:29.452Z,2.92
2018-05-21T12:59:32.744Z,2.67
2018-05-21T13:04:36.494Z,2.80
2018-05-21T13:09:40.200Z,2.78
2018-05-21T13:14:43.434Z,2.72
2018-05-21T13:19:46.673Z,2.60
2018-05-21T13:24:49.968Z,2.20
2018-05-21T13:29:53.263Z,1.98
2018-05-21T13:35:00.742Z,1.70
2018-05-21T13:40:04.019Z,2.10
2018-05-21T13:45:07.406Z,2.10
2018-05-21T13:50:10.701Z,2.00
2018-05-21T13:55:14.410Z,2.12
2018-05-21T14:00:18.230Z,2.10
2018-05-21T14:05:21.872Z,2.05
2018-05-21T14:10:25.255Z,1.62
2018-05-21T14:15:28.918Z,1.80
2018-05-21T14:20:32.909Z,2.00
2018-05-21T14:25:36.541Z,1.92
2018-05-21T14:30:39.916Z,1.92
2018-05-21T14:35:43.157Z,1.87
2018-05-21T14:40:46.520Z,2.05
2018-05-21T14:45:49.749Z,1.80
2018-05-21T14:50:54.272Z,1.80
2018-05-21T14:55:57.527Z,2.10
2018-05-21T15:01:01.118Z,1.83
2018-05-21T15:06:04.372Z,1.77
2018-05-21T15:11:07.600Z,1.62
2018-05-21T15:16:11.010Z,2.00
2018-05-21T15:21:14.201Z,2.20
2018-05-21T15:26:17.553Z,1.65
2018-05-21T15:31:20.776Z,1.90
2018-05-21T15:36:24.062Z,1.87
2018-05-21T15:41:27.777Z,2.17
2018-05-21T15:46:31.446Z,1.90
2018-05-21T15:51:34.692Z,2.00
2018-05-21T15:56:38.390Z,1.75
2018-05-21T16:01:41.722Z,1.75
2018-05-21T16:06:45.377Z,2.12
2018-05-21T16:11:48.626Z,1.52
2018-05-21T16:16:51.855Z,1.58
2018-05-21T16:21:55.508Z,1.70
2018-05-21T16:26:58.760Z,1.60
2018-05-21T16:32:02.423Z,1.40
2018-05-21T16:37:05.672Z,1.52
2018-05-21T16:42:08.917Z,1.67
2018-05-21T16:47:12.951Z,1.37
2018-05-21T16:52:16.175Z,2.00
2018-05-21T16:57:19.445Z,1.80
2018-05-21T17:02:22.813Z,1.80
2018-05-21T17:07:26.082Z,1.58
2018-05-21T17:12:29.324Z,1.80
2018-05-21T17:17:32.541Z,1.80
2018-05-21T17:22:36.195Z,1.70
2018-05-21T17:27:39.418Z,1.85
2018-05-21T17:32:42.643Z,1.83
2018-05-21T17:37:45.894Z,1.65
2018-05-21T17:42:49.516Z,1.90
2018-05-21T17:47:52.810Z,2.30
2018-05-21T17:52:56.451Z,1.65
2018-05-21T17:57:59.705Z,1.70
2018-05-21T18:03:03.009Z,1.67
2018-05-21T18:08:06.229Z,1.85
2018-05-21T18:13:09.472Z,1.85
2018-05-21T18:18:12.730Z,2.28
2018-05-21T18:23:16.462Z,1.73
2018-05-21T18:28:19.696Z,2.00
2018-05-21T18:33:23.808Z,2.05
2018-05-21T18:38:27.441Z,2.30
2018-05-21T18:43:30.716Z,1.60
2018-05-21T18:48:33.965Z,2.05
2018-05-21T18:53:37.188Z,1.48
2018-05-21T18:58:40.425Z,1.40
2018-05-21T19:03:43.654Z,1.58
2018-05-21T19:08:46.899Z,1.70
2018-05-21T19:13:50.106Z,1.50
2018-05-21T19:18:53.485Z,1.55
2018-05-21T19:23:56.727Z,1.50
2018-05-21T19:28:59.956Z,1.40
2018-05-21T19:34:03.189Z,1.60
2018-05-21T19:39:06.826Z,1.77
2018-05-21T19:44:12.102Z,1.52
2018-05-21T19:49:15.377Z,1.60
2018-05-21T19:54:18.605Z,1.55
2018-05-21T19:59:23.022Z,1.62
2018-05-21T20:04:26.255Z,1.05
2018-05-21T20:09:29.481Z,1.42
2018-05-21T20:14:32.726Z,1.30
2018-05-21T20:19:36.377Z,1.52
2018-05-21T20:24:39.646Z,1.45
2018-05-21T20:29:43.333Z,1.35
2018-05-21T20:34:46.658Z,1.50
2018-05-21T20:39:49.959Z,1.60
2018-05-21T20:44:53.603Z,2.00
2018-05-21T20:49:56.990Z,1.80
2018-05-21T20:55:00.617Z,1.73
2018-05-21T21:00:04.280Z,1.50
2018-05-21T21:05:07.732Z,1.65
2018-05-21T21:10:12.266Z,1.92
2018-05-21T21:15:17.209Z,1.60
2018-05-21T21:20:21.145Z,2.20
2018-05-21T21:25:25.087Z,1.90
2018-05-21T21:30:29.592Z,1.80
2018-05-21T21:35:34.927Z,1.52
2018-05-21T21:40:38.470Z,1.92
2018-05-21T21:45:43.539Z,1.90
2018-05-21T21:50:46.848Z,1.98
2018-05-21T21:55:50.339Z,2.10
2018-05-21T22:00:54.212Z,2.10
2018-05-21T22:05:57.865Z,2.25
2018-05-21T22:11:01.318Z,2.28
2018-05-21T22:16:04.548Z,2.40
2018-05-21T22:21:08.024Z,2.42
2018-05-21T22:26:11.310Z,2.55
2018-05-21T22:31:16.107Z,2.67
2018-05-21T22:36:22.553Z,2.40
2018-05-21T22:41:27.088Z,2.60
2018-05-21T22:46:32.293Z,2.80
2018-05-21T22:51:36.334Z,2.60
2018-05-21T22:56:42.664Z,2.92
2018-05-21T23:01:47.738Z,2.33
2018-05-21T23:06:52.932Z,2.50
2018-05-21T23:11:56.559Z,2.80
2018-05-21T23:17:00.438Z,2.47
2018-05-21T23:22:03.963Z,2.55
2018-05-21T23:27:07.219Z,2.50
2018-05-21T23:32:10.512Z,2.35
2018-05-21T23:37:15.005Z,2.55
2018-05-21T23:42:18.310Z,3.17
2018-05-21T23:47:22.271Z,2.70
2018-05-21T23:52:26.761Z,2.55
2018-05-21T23:57:30.003Z,2.67
